sensor_id;sensor_type;location;lat;lon;timestamp;pressure;altitude;pressure_sealevel;temperature;humidity
54038;BME280;39954;48.844;9.726;2023-12-07T00:01:01;96353.25;;;-1.45;100.00
54038;BME280;39954;48.844;9.726;2023-12-07T00:02:03;96353.25;;;-1.45;100.00
54038;BME280;39954;48.844;9.726;2023-12-07T00:03:08;96353.25;;;-1.42;100.00
54038;BME280;39954;48.844;9.726;2023-12-07T00:04:13;96348.97;;;-1.39;100.00
54038;BME280;39954;48.844;9.726;2023-12-07T00:05:18;96360.00;;;-1.38;100.00
54038;BME280;39954;48.844;9.726;2023-12-07T00:06:21;96361.72;;;-1.40;100.00
54038;BME280;39954;48.844;9.726;2023-12-07T00:07:25;96356.63;;;-1.37;100.00
54038;BME280;39954;48.844;9.726;2023-12-07T00:08:28;96352.38;;;-1.37;100.00
54038;BME280;39954;48.844;9.726;2023-12-07T00:09:33;96358.31;;;-1.36;100.00
54038;BME280;39954;48.844;9.726;2023-12-07T00:10:35;96357.44;;;-1.35;100.00
54038;BME280;39954;48.844;9.726;2023-12-07T00:11:40;96361.69;;;-1.31;100.00
54038;BME280;39954;48.844;9.726;2023-12-07T00:12:42;96354.84;;;-1.29;100.00
54038;BME280;39954;48.844;9.726;2023-12-07T00:13:48;96361.66;;;-1.28;100.00
54038;BME280;39954;48.844;9.726;2023-12-07T00:14:50;96365.03;;;-1.23;100.00
54038;BME280;39954;48.844;9.726;2023-12-07T00:15:55;96363.28;;;-1.21;100.00
54038;BME280;39954;48.844;9.726;2023-12-07T00:16:57;96363.31;;;-1.24;100.00
54038;BME280;39954;48.844;9.726;2023-12-07T00:17:59;96365.06;;;-1.26;100.00
54038;BME280;39954;48.844;9.726;2023-12-07T00:19:06;96368.41;;;-1.21;100.00
54038;BME280;39954;48.844;9.726;2023-12-07T00:20:11;96365.03;;;-1.23;100.00
54038;BME280;39954;48.844;9.726;2023-12-07T00:21:16;96363.34;;;-1.25;100.00
54038;BME280;39954;48.844;9.726;2023-12-07T00:22:18;96368.41;;;-1.24;100.00
54038;BME280;39954;48.844;9.726;2023-12-07T00:23:24;96362.47;;;-1.23;100.00
54038;BME280;39954;48.844;9.726;2023-12-07T00:24:26;96365.03;;;-1.23;100.00
54038;BME280;39954;48.844;9.726;2023-12-07T00:25:31;96360.75;;;-1.24;100.00
54038;BME280;39954;48.844;9.726;2023-12-07T00:26:34;96363.28;;;-1.18;100.00
54038;BME280;39954;48.844;9.726;2023-12-07T00:27:39;96368.41;;;-1.21;100.00
54038;BME280;39954;48.844;9.726;2023-12-07T00:28:42;96365.03;;;-1.23;100.00
54038;BME280;39954;48.844;9.726;2023-12-07T00:29:47;96366.72;;;-1.25;100.00
54038;BME280;39954;48.844;9.726;2023-12-07T00:30:49;96370.13;;;-1.24;100.00
54038;BME280;39954;48.844;9.726;2023-12-07T00:31:54;96369.25;;;-1.23;100.00
54038;BME280;39954;48.844;9.726;2023-12-07T00:32:56;96370.06;;;-1.14;100.00
54038;BME280;39954;48.844;9.726;2023-12-07T00:34:02;96377.72;;;-1.17;100.00
54038;BME280;39954;48.844;9.726;2023-12-07T00:35:05;96369.25;;;-1.19;100.00
54038;BME280;39954;48.844;9.726;2023-12-07T00:36:14;96367.50;;;-1.12;100.00
54038;BME280;39954;48.844;9.726;2023-12-07T00:37:16;96376.03;;;-1.16;100.00
54038;BME280;39954;48.844;9.726;2023-12-07T00:38:21;96375.19;;;-1.17;100.00
54038;BME280;39954;48.844;9.726;2023-12-07T00:39:23;96373.47;;;-1.18;100.00
54038;BME280;39954;48.844;9.726;2023-12-07T00:40:28;96374.34;;;-1.17;100.00
54038;BME280;39954;48.844;9.726;2023-12-07T00:41:30;96370.09;;;-1.20;100.00
54038;BME280;39954;48.844;9.726;2023-12-07T00:42:35;96367.53;;;-1.18;100.00
54038;BME280;39954;48.844;9.726;2023-12-07T00:43:37;96372.66;;;-1.20;100.00
54038;BME280;39954;48.844;9.726;2023-12-07T00:44:42;96373.53;;;-1.22;100.00
54038;BME280;39954;48.844;9.726;2023-12-07T00:45:44;96372.69;;;-1.24;100.00
54038;BME280;39954;48.844;9.726;2023-12-07T00:46:49;96374.41;;;-1.28;100.00
54038;BME280;39954;48.844;9.726;2023-12-07T00:47:51;96382.03;;;-1.25;100.00
54038;BME280;39954;48.844;9.726;2023-12-07T00:48:56;96373.50;;;-1.24;100.00
54038;BME280;39954;48.844;9.726;2023-12-07T00:49:58;96370.16;;;-1.26;100.00
54038;BME280;39954;48.844;9.726;2023-12-07T00:51:03;96374.38;;;-1.26;100.00
54038;BME280;39954;48.844;9.726;2023-12-07T00:52:10;96381.22;;;-1.30;100.00
54038;BME280;39954;48.844;9.726;2023-12-07T00:53:15;96376.13;;;-1.33;100.00
54038;BME280;39954;48.844;9.726;2023-12-07T00:54:17;96371.88;;;-1.32;100.00
54038;BME280;39954;48.844;9.726;2023-12-07T00:55:22;96377.81;;;-1.32;100.00
54038;BME280;39954;48.844;9.726;2023-12-07T00:56:25;96377.84;;;-1.35;100.00
54038;BME280;39954;48.844;9.726;2023-12-07T00:57:30;96375.28;;;-1.35;100.00
54038;BME280;39954;48.844;9.726;2023-12-07T00:58:32;96378.66;;;-1.35;100.00
54038;BME280;39954;48.844;9.726;2023-12-07T00:59:37;96382.94;;;-1.38;100.00
54038;BME280;39954;48.844;9.726;2023-12-07T01:00:40;96385.50;;;-1.38;100.00
54038;BME280;39954;48.844;9.726;2023-12-07T01:01:44;96377.00;;;-1.37;100.00
54038;BME280;39954;48.844;9.726;2023-12-07T01:02:46;96376.16;;;-1.41;100.00
54038;BME280;39954;48.844;9.726;2023-12-07T01:03:51;96383.81;;;-1.41;100.00
54038;BME280;39954;48.844;9.726;2023-12-07T01:04:53;96378.75;;;-1.42;100.00
54038;BME280;39954;48.844;9.726;2023-12-07T01:05:56;96385.53;;;-1.41;100.00
54038;BME280;39954;48.844;9.726;2023-12-07T01:07:00;96388.91;;;-1.41;100.00
54038;BME280;39954;48.844;9.726;2023-12-07T01:08:06;96390.63;;;-1.41;100.00
54038;BME280;39954;48.844;9.726;2023-12-07T01:09:11;96395.72;;;-1.41;100.00
54038;BME280;39954;48.844;9.726;2023-12-07T01:10:15;96388.94;;;-1.42;100.00
54038;BME280;39954;48.844;9.726;2023-12-07T01:11:20;96392.31;;;-1.43;100.00
54038;BME280;39954;48.844;9.726;2023-12-07T01:12:22;96391.47;;;-1.44;100.00
54038;BME280;39954;48.844;9.726;2023-12-07T01:13:27;96391.50;;;-1.45;100.00
54038;BME280;39954;48.844;9.726;2023-12-07T01:14:29;96400.84;;;-1.47;100.00
54038;BME280;39954;48.844;9.726;2023-12-07T01:15:34;96397.44;;;-1.46;100.00
54038;BME280;39954;48.844;9.726;2023-12-07T01:16:36;96401.69;;;-1.45;100.00
54038;BME280;39954;48.844;9.726;2023-12-07T01:17:41;96406.78;;;-1.45;100.00
54038;BME280;39954;48.844;9.726;2023-12-07T01:18:43;96396.59;;;-1.45;100.00
54038;BME280;39954;48.844;9.726;2023-12-07T01:19:48;96403.38;;;-1.44;100.00
54038;BME280;39954;48.844;9.726;2023-12-07T01:20:51;96405.06;;;-1.42;100.00
54038;BME280;39954;48.844;9.726;2023-12-07T01:21:55;96405.09;;;-1.45;100.00
54038;BME280;39954;48.844;9.726;2023-12-07T01:22:58;96401.69;;;-1.45;100.00
54038;BME280;39954;48.844;9.726;2023-12-07T01:24:06;96411.03;;;-1.44;100.00
54038;BME280;39954;48.844;9.726;2023-12-07T01:25:16;96409.34;;;-1.42;100.00
54038;BME280;39954;48.844;9.726;2023-12-07T01:26:24;96405.94;;;-1.44;100.00
54038;BME280;39954;48.844;9.726;2023-12-07T01:27:26;96408.47;;;-1.46;100.00
54038;BME280;39954;48.844;9.726;2023-12-07T01:28:31;96414.44;;;-1.45;100.00
54038;BME280;39954;48.844;9.726;2023-12-07T01:29:33;96412.75;;;-1.45;100.00
54038;BME280;39954;48.844;9.726;2023-12-07T01:30:38;96404.22;;;-1.44;100.00
54038;BME280;39954;48.844;9.726;2023-12-07T01:31:41;96415.25;;;-1.43;100.00
54038;BME280;39954;48.844;9.726;2023-12-07T01:32:46;96413.59;;;-1.43;100.00
54038;BME280;39954;48.844;9.726;2023-12-07T01:33:48;96416.13;;;-1.44;100.00
54038;BME280;39954;48.844;9.726;2023-12-07T01:34:53;96423.78;;;-1.44;100.00
54038;BME280;39954;48.844;9.726;2023-12-07T01:35:57;96422.06;;;-1.42;100.00
54038;BME280;39954;48.844;9.726;2023-12-07T01:36:59;96420.38;;;-1.43;100.00
54038;BME280;39954;48.844;9.726;2023-12-07T01:38:07;96417.81;;;-1.43;100.00
54038;BME280;39954;48.844;9.726;2023-12-07T01:39:12;96425.47;;;-1.43;100.00
54038;BME280;39954;48.844;9.726;2023-12-07T01:40:17;96414.44;;;-1.42;100.00
54038;BME280;39954;48.844;9.726;2023-12-07T01:41:20;96417.81;;;-1.43;100.00
54038;BME280;39954;48.844;9.726;2023-12-07T01:42:25;96421.22;;;-1.41;100.00
54038;BME280;39954;48.844;9.726;2023-12-07T01:43:27;96422.91;;;-1.40;100.00
54038;BME280;39954;48.844;9.726;2023-12-07T01:44:34;96422.91;;;-1.40;100.00
54038;BME280;39954;48.844;9.726;2023-12-07T01:45:36;96417.81;;;-1.39;100.00
54038;BME280;39954;48.844;9.726;2023-12-07T01:46:41;96423.75;;;-1.37;100.00
54038;BME280;39954;48.844;9.726;2023-12-07T01:47:44;96417.81;;;-1.37;100.00
54038;BME280;39954;48.844;9.726;2023-12-07T01:48:49;96420.31;;;-1.31;100.00
54038;BME280;39954;48.844;9.726;2023-12-07T01:49:52;96420.31;;;-1.32;100.00
54038;BME280;39954;48.844;9.726;2023-12-07T01:50:58;96420.34;;;-1.34;100.00
54038;BME280;39954;48.844;9.726;2023-12-07T01:52:01;96411.84;;;-1.36;100.00
54038;BME280;39954;48.844;9.726;2023-12-07T01:53:06;96410.97;;;-1.35;100.00
54038;BME280;39954;48.844;9.726;2023-12-07T01:54:13;96407.59;;;-1.34;100.00
54038;BME280;39954;48.844;9.726;2023-12-07T01:55:19;96411.84;;;-1.36;100.00
54038;BME280;39954;48.844;9.726;2023-12-07T01:56:23;96417.78;;;-1.34;100.00
54038;BME280;39954;48.844;9.726;2023-12-07T01:57:29;96418.63;;;-1.33;100.00
54038;BME280;39954;48.844;9.726;2023-12-07T01:58:31;96416.06;;;-1.35;100.00
54038;BME280;39954;48.844;9.726;2023-12-07T01:59:36;96414.41;;;-1.36;100.00
54038;BME280;39954;48.844;9.726;2023-12-07T02:00:39;96421.19;;;-1.38;100.00
54038;BME280;39954;48.844;9.726;2023-12-07T02:01:44;96419.50;;;-1.39;100.00
54038;BME280;39954;48.844;9.726;2023-12-07T02:02:47;96422.91;;;-1.40;100.00
54038;BME280;39954;48.844;9.726;2023-12-07T02:03:52;96422.06;;;-1.41;100.00
54038;BME280;39954;48.844;9.726;2023-12-07T02:04:55;96419.50;;;-1.41;100.00
54038;BME280;39954;48.844;9.726;2023-12-07T02:06:01;96420.38;;;-1.42;100.00
54038;BME280;39954;48.844;9.726;2023-12-07T02:07:04;96426.31;;;-1.41;100.00
54038;BME280;39954;48.844;9.726;2023-12-07T02:08:09;96422.06;;;-1.42;100.00
54038;BME280;39954;48.844;9.726;2023-12-07T02:09:14;96417.81;;;-1.43;100.00
54038;BME280;39954;48.844;9.726;2023-12-07T02:10:19;96416.97;;;-1.42;100.00
54038;BME280;39954;48.844;9.726;2023-12-07T02:11:21;96419.53;;;-1.42;100.00
54038;BME280;39954;48.844;9.726;2023-12-07T02:12:26;96417.00;;;-1.45;100.00
54038;BME280;39954;48.844;9.726;2023-12-07T02:13:31;96422.91;;;-1.43;100.00
54038;BME280;39954;48.844;9.726;2023-12-07T02:14:34;96418.69;;;-1.44;100.00
54038;BME280;39954;48.844;9.726;2023-12-07T02:15:39;96422.94;;;-1.46;100.00
54038;BME280;39954;48.844;9.726;2023-12-07T02:16:45;96422.09;;;-1.47;100.00
54038;BME280;39954;48.844;9.726;2023-12-07T02:17:57;96422.09;;;-1.45;100.00
54038;BME280;39954;48.844;9.726;2023-12-07T02:19:10;96420.38;;;-1.43;100.00
54038;BME280;39954;48.844;9.726;2023-12-07T02:20:26;96427.19;;;-1.42;100.00
54038;BME280;39954;48.844;9.726;2023-12-07T02:21:34;96419.53;;;-1.44;100.00
54038;BME280;39954;48.844;9.726;2023-12-07T02:22:42;96425.47;;;-1.45;100.00
54038;BME280;39954;48.844;9.726;2023-12-07T02:23:51;96426.34;;;-1.47;100.00
54038;BME280;39954;48.844;9.726;2023-12-07T02:25:04;96426.34;;;-1.47;100.00
54038;BME280;39954;48.844;9.726;2023-12-07T02:26:11;96429.75;;;-1.48;100.00
54038;BME280;39954;48.844;9.726;2023-12-07T02:27:18;96427.22;;;-1.48;100.00
54038;BME280;39954;48.844;9.726;2023-12-07T02:28:22;96428.03;;;-1.46;100.00
54038;BME280;39954;48.844;9.726;2023-12-07T02:29:25;96428.88;;;-1.47;100.00
54038;BME280;39954;48.844;9.726;2023-12-07T02:30:30;96428.84;;;-1.41;100.00
54038;BME280;39954;48.844;9.726;2023-12-07T02:31:33;96429.69;;;-1.41;100.00
54038;BME280;39954;48.844;9.726;2023-12-07T02:32:38;96426.31;;;-1.41;100.00
54038;BME280;39954;48.844;9.726;2023-12-07T02:33:41;96434.78;;;-1.36;100.00
54038;BME280;39954;48.844;9.726;2023-12-07T02:34:46;96434.78;;;-1.31;100.00
54038;BME280;39954;48.844;9.726;2023-12-07T02:35:48;96433.06;;;-1.32;100.00
54038;BME280;39954;48.844;9.726;2023-12-07T02:36:53;96431.34;;;-1.32;100.00
54038;BME280;39954;48.844;9.726;2023-12-07T02:38:00;96434.78;;;-1.33;100.00
54038;BME280;39954;48.844;9.726;2023-12-07T02:39:06;96438.16;;;-1.32;100.00
54038;BME280;39954;48.844;9.726;2023-12-07T02:40:10;96437.34;;;-1.31;100.00
54038;BME280;39954;48.844;9.726;2023-12-07T02:41:18;96437.31;;;-1.35;100.00
54038;BME280;39954;48.844;9.726;2023-12-07T02:42:24;96440.75;;;-1.34;100.00
54038;BME280;39954;48.844;9.726;2023-12-07T02:43:30;96444.13;;;-1.33;100.00
54038;BME280;39954;48.844;9.726;2023-12-07T02:44:33;96440.72;;;-1.32;100.00
54038;BME280;39954;48.844;9.726;2023-12-07T02:45:37;96440.72;;;-1.32;100.00
54038;BME280;39954;48.844;9.726;2023-12-07T02:46:40;96435.63;;;-1.32;100.00
54038;BME280;39954;48.844;9.726;2023-12-07T02:47:45;96437.34;;;-1.31;100.00
54038;BME280;39954;48.844;9.726;2023-12-07T02:48:48;96438.16;;;-1.31;100.00
54038;BME280;39954;48.844;9.726;2023-12-07T02:49:52;96439.00;;;-1.30;100.00
54038;BME280;39954;48.844;9.726;2023-12-07T02:50:55;96440.72;;;-1.31;100.00
54038;BME280;39954;48.844;9.726;2023-12-07T02:51:59;96437.31;;;-1.30;100.00
54038;BME280;39954;48.844;9.726;2023-12-07T02:53:02;96439.88;;;-1.31;100.00
54038;BME280;39954;48.844;9.726;2023-12-07T02:54:07;96431.38;;;-1.30;100.00
54038;BME280;39954;48.844;9.726;2023-12-07T02:55:10;96430.53;;;-1.31;100.00
54038;BME280;39954;48.844;9.726;2023-12-07T02:56:15;96429.66;;;-1.28;100.00
54038;BME280;39954;48.844;9.726;2023-12-07T02:57:17;96443.25;;;-1.28;100.00
54038;BME280;39954;48.844;9.726;2023-12-07T02:58:27;96436.44;;;-1.29;100.00
54038;BME280;39954;48.844;9.726;2023-12-07T02:59:29;96429.66;;;-1.30;100.00
54038;BME280;39954;48.844;9.726;2023-12-07T03:00:34;96439.84;;;-1.27;100.00
54038;BME280;39954;48.844;9.726;2023-12-07T03:01:36;96436.44;;;-1.29;100.00
54038;BME280;39954;48.844;9.726;2023-12-07T03:02:41;96438.16;;;-1.28;100.00
54038;BME280;39954;48.844;9.726;2023-12-07T03:03:43;96433.88;;;-1.29;100.00
54038;BME280;39954;48.844;9.726;2023-12-07T03:04:48;96439.84;;;-1.27;100.00
54038;BME280;39954;48.844;9.726;2023-12-07T03:05:50;96433.06;;;-1.28;100.00
54038;BME280;39954;48.844;9.726;2023-12-07T03:06:55;96427.97;;;-1.28;100.00
54038;BME280;39954;48.844;9.726;2023-12-07T03:07:57;96431.34;;;-1.29;100.00
54038;BME280;39954;48.844;9.726;2023-12-07T03:09:02;96429.66;;;-1.30;100.00
54038;BME280;39954;48.844;9.726;2023-12-07T03:10:06;96434.75;;;-1.30;100.00
54038;BME280;39954;48.844;9.726;2023-12-07T03:11:11;96432.22;;;-1.31;100.00
54038;BME280;39954;48.844;9.726;2023-12-07T03:12:13;96428.81;;;-1.30;100.00
54038;BME280;39954;48.844;9.726;2023-12-07T03:13:18;96430.50;;;-1.32;100.00
54038;BME280;39954;48.844;9.726;2023-12-07T03:14:23;96435.63;;;-1.34;100.00
54038;BME280;39954;48.844;9.726;2023-12-07T03:15:27;96425.44;;;-1.34;100.00
54038;BME280;39954;48.844;9.726;2023-12-07T03:16:30;96428.81;;;-1.32;100.00
54038;BME280;39954;48.844;9.726;2023-12-07T03:17:35;96437.31;;;-1.33;100.00
54038;BME280;39954;48.844;9.726;2023-12-07T03:18:37;96437.31;;;-1.33;100.00
54038;BME280;39954;48.844;9.726;2023-12-07T03:19:42;96440.75;;;-1.34;100.00
54038;BME280;39954;48.844;9.726;2023-12-07T03:20:44;96438.19;;;-1.34;100.00
54038;BME280;39954;48.844;9.726;2023-12-07T03:21:49;96442.41;;;-1.33;100.00
54038;BME280;39954;48.844;9.726;2023-12-07T03:22:51;96437.31;;;-1.35;100.00
54038;BME280;39954;48.844;9.726;2023-12-07T03:23:56;96441.59;;;-1.33;100.00
54038;BME280;39954;48.844;9.726;2023-12-07T03:24:58;96439.88;;;-1.33;100.00
54038;BME280;39954;48.844;9.726;2023-12-07T03:26:01;96441.56;;;-1.32;100.00
54038;BME280;39954;48.844;9.726;2023-12-07T03:27:05;96449.22;;;-1.32;100.00
54038;BME280;39954;48.844;9.726;2023-12-07T03:28:07;96443.28;;;-1.31;100.00
54038;BME280;39954;48.844;9.726;2023-12-07T03:29:10;96444.13;;;-1.33;100.00
54038;BME280;39954;48.844;9.726;2023-12-07T03:30:17;96445.84;;;-1.34;100.00
54038;BME280;39954;48.844;9.726;2023-12-07T03:31:19;96444.97;;;-1.33;100.00
54038;BME280;39954;48.844;9.726;2023-12-07T03:32:24;96439.88;;;-1.33;100.00
54038;BME280;39954;48.844;9.726;2023-12-07T03:33:27;96440.72;;;-1.32;100.00
54038;BME280;39954;48.844;9.726;2023-12-07T03:34:32;96440.72;;;-1.32;100.00
54038;BME280;39954;48.844;9.726;2023-12-07T03:35:34;96434.78;;;-1.33;100.00
54038;BME280;39954;48.844;9.726;2023-12-07T03:36:39;96444.97;;;-1.33;100.00
54038;BME280;39954;48.844;9.726;2023-12-07T03:37:41;96443.25;;;-1.29;100.00
54038;BME280;39954;48.844;9.726;2023-12-07T03:38:46;96439.84;;;-1.30;100.00
54038;BME280;39954;48.844;9.726;2023-12-07T03:39:49;96444.09;;;-1.29;100.00
54038;BME280;39954;48.844;9.726;2023-12-07T03:40:54;96439.00;;;-1.30;100.00
54038;BME280;39954;48.844;9.726;2023-12-07T03:41:57;96447.53;;;-1.31;100.00
54038;BME280;39954;48.844;9.726;2023-12-07T03:43:01;96433.06;;;-1.31;100.00
54038;BME280;39954;48.844;9.726;2023-12-07T03:44:07;96437.31;;;-1.30;100.00
54038;BME280;39954;48.844;9.726;2023-12-07T03:45:11;96440.72;;;-1.32;100.00
54038;BME280;39954;48.844;9.726;2023-12-07T03:46:16;96443.28;;;-1.34;100.00
54038;BME280;39954;48.844;9.726;2023-12-07T03:47:23;96445.84;;;-1.34;100.00
54038;BME280;39954;48.844;9.726;2023-12-07T03:48:25;96435.63;;;-1.36;100.00
54038;BME280;39954;48.844;9.726;2023-12-07T03:49:30;96444.16;;;-1.37;100.00
54038;BME280;39954;48.844;9.726;2023-12-07T03:50:32;96435.63;;;-1.36;100.00
54038;BME280;39954;48.844;9.726;2023-12-07T03:51:37;96441.59;;;-1.33;100.00
54038;BME280;39954;48.844;9.726;2023-12-07T03:52:40;96436.47;;;-1.32;100.00
54038;BME280;39954;48.844;9.726;2023-12-07T03:53:42;96441.56;;;-1.35;100.00
54038;BME280;39954;48.844;9.726;2023-12-07T03:54:47;96439.03;;;-1.35;100.00
54038;BME280;39954;48.844;9.726;2023-12-07T03:55:49;96439.88;;;-1.36;100.00
54038;BME280;39954;48.844;9.726;2023-12-07T03:56:54;96440.72;;;-1.32;100.00
54038;BME280;39954;48.844;9.726;2023-12-07T03:57:56;96430.53;;;-1.36;100.00
54038;BME280;39954;48.844;9.726;2023-12-07T03:59:01;96438.22;;;-1.37;100.00
54038;BME280;39954;48.844;9.726;2023-12-07T04:00:05;96432.22;;;-1.35;100.00
54038;BME280;39954;48.844;9.726;2023-12-07T04:01:11;96431.38;;;-1.38;100.00
54038;BME280;39954;48.844;9.726;2023-12-07T04:02:16;96435.66;;;-1.39;100.00
54038;BME280;39954;48.844;9.726;2023-12-07T04:03:21;96433.09;;;-1.40;100.00
54038;BME280;39954;48.844;9.726;2023-12-07T04:04:23;96438.22;;;-1.43;100.00
54038;BME280;39954;48.844;9.726;2023-12-07T04:05:28;96443.31;;;-1.43;100.00
54038;BME280;39954;48.844;9.726;2023-12-07T04:06:30;96440.78;;;-1.46;100.00
54038;BME280;39954;48.844;9.726;2023-12-07T04:07:32;96450.16;;;-1.48;100.00
54038;BME280;39954;48.844;9.726;2023-12-07T04:08:37;96449.28;;;-1.52;100.00
54038;BME280;39954;48.844;9.726;2023-12-07T04:09:39;96456.09;;;-1.57;100.00
54038;BME280;39954;48.844;9.726;2023-12-07T04:10:44;96446.78;;;-1.60;100.00
54038;BME280;39954;48.844;9.726;2023-12-07T04:11:49;96454.44;;;-1.60;100.00
54038;BME280;39954;48.844;9.726;2023-12-07T04:12:54;96455.28;;;-1.64;100.00
54038;BME280;39954;48.844;9.726;2023-12-07T04:13:58;96451.88;;;-1.66;100.00
54038;BME280;39954;48.844;9.726;2023-12-07T04:15:03;96453.59;;;-1.65;100.00
54038;BME280;39954;48.844;9.726;2023-12-07T04:16:06;96460.41;;;-1.67;100.00
54038;BME280;39954;48.844;9.726;2023-12-07T04:17:08;96454.44;;;-1.69;100.00
54038;BME280;39954;48.844;9.726;2023-12-07T04:18:16;96465.50;;;-1.74;100.00
54038;BME280;39954;48.844;9.726;2023-12-07T04:19:19;96460.44;;;-1.76;100.00
54038;BME280;39954;48.844;9.726;2023-12-07T04:20:24;96456.19;;;-1.78;100.00
54038;BME280;39954;48.844;9.726;2023-12-07T04:21:26;96459.59;;;-1.83;100.00
54038;BME280;39954;48.844;9.726;2023-12-07T04:22:28;96459.63;;;-1.90;100.00
54038;BME280;39954;48.844;9.726;2023-12-07T04:23:33;96460.47;;;-2.00;100.00
54038;BME280;39954;48.844;9.726;2023-12-07T04:24:36;96463.06;;;-2.10;100.00
54038;BME280;39954;48.844;9.726;2023-12-07T04:25:38;96475.78;;;-2.19;100.00
54038;BME280;39954;48.844;9.726;2023-12-07T04:26:42;96469.81;;;-2.16;100.00
54038;BME280;39954;48.844;9.726;2023-12-07T04:27:45;96473.22;;;-2.25;100.00
54038;BME280;39954;48.844;9.726;2023-12-07T04:28:50;96478.31;;;-2.25;100.00
54038;BME280;39954;48.844;9.726;2023-12-07T04:29:52;96469.84;;;-2.32;100.00
54038;BME280;39954;48.844;9.726;2023-12-07T04:30:57;96472.41;;;-2.39;100.00
54038;BME280;39954;48.844;9.726;2023-12-07T04:31:59;96476.66;;;-2.46;100.00
54038;BME280;39954;48.844;9.726;2023-12-07T04:33:04;96474.09;;;-2.54;100.00
54038;BME280;39954;48.844;9.726;2023-12-07T04:34:09;96471.53;;;-2.55;100.00
54038;BME280;39954;48.844;9.726;2023-12-07T04:35:14;96478.34;;;-2.60;100.00
54038;BME280;39954;48.844;9.726;2023-12-07T04:36:16;96474.09;;;-2.66;100.00
54038;BME280;39954;48.844;9.726;2023-12-07T04:37:21;96474.06;;;-2.72;100.00
54038;BME280;39954;48.844;9.726;2023-12-07T04:38:23;96474.91;;;-2.79;100.00
54038;BME280;39954;48.844;9.726;2023-12-07T04:39:28;96475.75;;;-2.83;100.00
54038;BME280;39954;48.844;9.726;2023-12-07T04:40:30;96470.66;;;-2.88;100.00
54038;BME280;39954;48.844;9.726;2023-12-07T04:41:32;96477.47;;;-2.88;100.00
54038;BME280;39954;48.844;9.726;2023-12-07T04:42:37;96479.13;;;-2.90;100.00
54038;BME280;39954;48.844;9.726;2023-12-07T04:43:39;96479.13;;;-2.94;100.00
54038;BME280;39954;48.844;9.726;2023-12-07T04:44:44;96484.19;;;-2.98;100.00
54038;BME280;39954;48.844;9.726;2023-12-07T04:45:46;96478.28;;;-3.02;100.00
54038;BME280;39954;48.844;9.726;2023-12-07T04:46:51;96475.72;;;-3.05;100.00
54038;BME280;39954;48.844;9.726;2023-12-07T04:47:53;96481.66;;;-3.04;100.00
54038;BME280;39954;48.844;9.726;2023-12-07T04:48:59;96479.94;;;-3.05;100.00
54038;BME280;39954;48.844;9.726;2023-12-07T04:50:04;96479.94;;;-3.01;100.00
54038;BME280;39954;48.844;9.726;2023-12-07T04:51:09;96474.03;;;-3.01;100.00
54038;BME280;39954;48.844;9.726;2023-12-07T04:52:13;96480.81;;;-3.02;100.00
54038;BME280;39954;48.844;9.726;2023-12-07T04:53:18;96474.88;;;-2.96;100.00
54038;BME280;39954;48.844;9.726;2023-12-07T04:54:20;96473.19;;;-2.99;100.00
54038;BME280;39954;48.844;9.726;2023-12-07T04:55:25;96472.34;;;-2.96;100.00
54038;BME280;39954;48.844;9.726;2023-12-07T04:56:28;96474.03;;;-2.97;100.00
54038;BME280;39954;48.844;9.726;2023-12-07T04:57:33;96478.25;;;-2.97;100.00
54038;BME280;39954;48.844;9.726;2023-12-07T04:58:35;96465.56;;;-2.99;100.00
54038;BME280;39954;48.844;9.726;2023-12-07T04:59:41;96476.59;;;-2.94;100.00
54038;BME280;39954;48.844;9.726;2023-12-07T05:00:43;96471.50;;;-2.94;100.00
54038;BME280;39954;48.844;9.726;2023-12-07T05:01:48;96470.66;;;-2.96;100.00
54038;BME280;39954;48.844;9.726;2023-12-07T05:02:50;96476.59;;;-2.97;100.00
54038;BME280;39954;48.844;9.726;2023-12-07T05:03:53;96474.00;;;-3.00;100.00
54038;BME280;39954;48.844;9.726;2023-12-07T05:04:58;96469.78;;;-3.02;100.00
54038;BME280;39954;48.844;9.726;2023-12-07T05:06:03;96472.31;;;-3.04;100.00
54038;BME280;39954;48.844;9.726;2023-12-07T05:07:09;96471.47;;;-3.07;100.00
54038;BME280;39954;48.844;9.726;2023-12-07T05:08:11;96474.00;;;-3.09;100.00
54038;BME280;39954;48.844;9.726;2023-12-07T05:09:16;96467.22;;;-3.11;100.00
54038;BME280;39954;48.844;9.726;2023-12-07T05:10:18;96468.91;;;-3.15;100.00
54038;BME280;39954;48.844;9.726;2023-12-07T05:11:23;96473.97;;;-3.18;100.00
54038;BME280;39954;48.844;9.726;2023-12-07T05:12:26;96468.03;;;-3.23;100.00
54038;BME280;39954;48.844;9.726;2023-12-07T05:13:31;96476.50;;;-3.26;100.00
54038;BME280;39954;48.844;9.726;2023-12-07T05:14:35;96467.16;;;-3.25;100.00
54038;BME280;39954;48.844;9.726;2023-12-07T05:15:42;96468.03;;;-3.26;100.00
54038;BME280;39954;48.844;9.726;2023-12-07T05:16:44;96464.63;;;-3.30;100.00
54038;BME280;39954;48.844;9.726;2023-12-07T05:17:50;96473.94;;;-3.30;100.00
54038;BME280;39954;48.844;9.726;2023-12-07T05:18:52;96473.06;;;-3.34;100.00
54038;BME280;39954;48.844;9.726;2023-12-07T05:19:57;96470.53;;;-3.28;100.00
54038;BME280;39954;48.844;9.726;2023-12-07T05:20:59;96473.09;;;-3.29;100.00
54038;BME280;39954;48.844;9.726;2023-12-07T05:22:07;96484.97;;;-3.33;100.00
54038;BME280;39954;48.844;9.726;2023-12-07T05:23:10;96479.00;;;-3.37;100.00
54038;BME280;39954;48.844;9.726;2023-12-07T05:24:15;96480.72;;;-3.26;100.00
54038;BME280;39954;48.844;9.726;2023-12-07T05:25:20;96472.28;;;-3.19;100.00
54038;BME280;39954;48.844;9.726;2023-12-07T05:26:25;96479.88;;;-3.27;100.00
54038;BME280;39954;48.844;9.726;2023-12-07T05:27:27;96485.81;;;-3.32;100.00
54038;BME280;39954;48.844;9.726;2023-12-07T05:28:32;96477.31;;;-3.34;100.00
54038;BME280;39954;48.844;9.726;2023-12-07T05:29:35;96480.72;;;-3.35;100.00
54038;BME280;39954;48.844;9.726;2023-12-07T05:30:43;96470.53;;;-3.39;100.00
54038;BME280;39954;48.844;9.726;2023-12-07T05:31:48;96484.09;;;-3.33;100.00
54038;BME280;39954;48.844;9.726;2023-12-07T05:32:54;96481.56;;;-3.32;100.00
54038;BME280;39954;48.844;9.726;2023-12-07T05:33:56;96474.78;;;-3.34;100.00
54038;BME280;39954;48.844;9.726;2023-12-07T05:35:01;96481.53;;;-3.40;100.00
54038;BME280;39954;48.844;9.726;2023-12-07T05:36:04;96483.19;;;-3.45;100.00